VE89 weather

Darbhanga Airport
Bihar, India

Public forecast

Using degrees Celsius for public forecast. Weather courtesy of forecast.io.

METAR (pilot weather report)

Closest report is Lok Nayak Jayaprakash Airport, 57.5 nm (106.5 km) SW. Retrieved 2018/07/22 09:30 UTC (18 minutes ago):

VEPT 220930Z 10008KT 6000 SCT018 BKN100 34/25 Q0993 NOSIG

TAF (pilot weather forecast)

Closest forecast is Lok Nayak Jayaprakash Airport, 57.5 nm (106.5 km) SW. Retrieved 2018/07/22 06:48 UTC (3 hours ago):

TAF VEPT 220500Z 2206/2312 10015KT 5500 HZ SCT018 SCT025 BECMG 2209/2211 4500 HZ SCT018 FEW030CB SCT100 BECMG 2214/2216 09009KT SCT018 BKN100 BECMG 2221/2223 3500 HZ SCT010 BKN018 BKN090 BECMG 2303/2305 4500 HZ SCT012 SCT025 BECMG 2310/2312 SCT018 FEW030CB SCT100